sensor_id;sensor_type;location;lat;lon;timestamp;temperature;humidity
65598;SHT31;52267;51.984;20.956;2023-02-15T00:00:05;4.40;85.50
65598;SHT31;52267;51.984;20.956;2023-02-15T00:02:56;4.41;85.50
65598;SHT31;52267;51.984;20.956;2023-02-15T00:05:23;4.41;85.52
65598;SHT31;52267;51.984;20.956;2023-02-15T00:07:50;4.42;85.50
65598;SHT31;52267;51.984;20.956;2023-02-15T00:10:17;4.43;85.41
65598;SHT31;52267;51.984;20.956;2023-02-15T00:12:44;4.41;85.41
65598;SHT31;52267;51.984;20.956;2023-02-15T00:15:11;4.39;85.40
65598;SHT31;52267;51.984;20.956;2023-02-15T00:17:39;4.36;85.40
65598;SHT31;52267;51.984;20.956;2023-02-15T00:20:06;4.34;85.40
65598;SHT31;52267;51.984;20.956;2023-02-15T00:22:34;4.33;85.39
65598;SHT31;52267;51.984;20.956;2023-02-15T00:25:01;4.31;85.39
65598;SHT31;52267;51.984;20.956;2023-02-15T00:27:28;4.28;85.43
65598;SHT31;52267;51.984;20.956;2023-02-15T00:29:55;4.30;85.49
65598;SHT31;52267;51.984;20.956;2023-02-15T00:32:22;4.30;85.41
65598;SHT31;52267;51.984;20.956;2023-02-15T00:34:49;4.27;85.38
65598;SHT31;52267;51.984;20.956;2023-02-15T00:37:16;4.25;85.32
65598;SHT31;52267;51.984;20.956;2023-02-15T00:39:43;4.21;85.39
65598;SHT31;52267;51.984;20.956;2023-02-15T00:42:10;4.21;85.40
65598;SHT31;52267;51.984;20.956;2023-02-15T00:44:37;4.20;85.39
65598;SHT31;52267;51.984;20.956;2023-02-15T00:47:04;4.16;85.40
65598;SHT31;52267;51.984;20.956;2023-02-15T00:49:31;4.14;85.48
65598;SHT31;52267;51.984;20.956;2023-02-15T00:51:58;4.13;85.58
65598;SHT31;52267;51.984;20.956;2023-02-15T00:54:25;4.14;85.68
65598;SHT31;52267;51.984;20.956;2023-02-15T00:56:52;4.17;85.67
65598;SHT31;52267;51.984;20.956;2023-02-15T00:59:19;4.19;85.68
65598;SHT31;52267;51.984;20.956;2023-02-15T01:01:46;4.21;85.69
65598;SHT31;52267;51.984;20.956;2023-02-15T01:04:13;4.23;85.68
65598;SHT31;52267;51.984;20.956;2023-02-15T01:06:40;4.27;85.65
65598;SHT31;52267;51.984;20.956;2023-02-15T01:09:07;4.28;85.68
65598;SHT31;52267;51.984;20.956;2023-02-15T01:11:34;4.28;85.68
65598;SHT31;52267;51.984;20.956;2023-02-15T01:14:01;4.30;85.70
65598;SHT31;52267;51.984;20.956;2023-02-15T01:16:29;4.32;85.68
65598;SHT31;52267;51.984;20.956;2023-02-15T01:18:56;4.30;85.59
65598;SHT31;52267;51.984;20.956;2023-02-15T01:21:24;4.30;85.61
65598;SHT31;52267;51.984;20.956;2023-02-15T01:23:52;4.30;85.67
65598;SHT31;52267;51.984;20.956;2023-02-15T01:26:19;4.31;85.66
65598;SHT31;52267;51.984;20.956;2023-02-15T01:28:47;4.31;85.66
65598;SHT31;52267;51.984;20.956;2023-02-15T01:31:15;4.29;85.65
65598;SHT31;52267;51.984;20.956;2023-02-15T01:33:45;4.27;85.62
65598;SHT31;52267;51.984;20.956;2023-02-15T01:36:14;4.26;85.63
65598;SHT31;52267;51.984;20.956;2023-02-15T01:38:52;4.22;85.65
65598;SHT31;52267;51.984;20.956;2023-02-15T01:41:19;4.21;85.65
65598;SHT31;52267;51.984;20.956;2023-02-15T01:43:47;4.20;85.68
65598;SHT31;52267;51.984;20.956;2023-02-15T01:46:18;4.20;85.71
65598;SHT31;52267;51.984;20.956;2023-02-15T01:48:52;4.21;85.75
65598;SHT31;52267;51.984;20.956;2023-02-15T01:51:25;4.21;85.73
65598;SHT31;52267;51.984;20.956;2023-02-15T01:54:04;4.23;85.79
65598;SHT31;52267;51.984;20.956;2023-02-15T01:56:35;4.24;85.78
65598;SHT31;52267;51.984;20.956;2023-02-15T01:59:08;4.23;85.79
65598;SHT31;52267;51.984;20.956;2023-02-15T02:01:39;4.24;85.80
65598;SHT31;52267;51.984;20.956;2023-02-15T02:04:11;4.23;85.80
65598;SHT31;52267;51.984;20.956;2023-02-15T02:06:45;4.27;85.80
65598;SHT31;52267;51.984;20.956;2023-02-15T02:09:15;4.28;85.80
65598;SHT31;52267;51.984;20.956;2023-02-15T02:11:42;4.27;85.80
65598;SHT31;52267;51.984;20.956;2023-02-15T02:14:12;4.28;85.83
65598;SHT31;52267;51.984;20.956;2023-02-15T02:25:30;4.25;85.70
65598;SHT31;52267;51.984;20.956;2023-02-15T02:40:52;4.04;85.62
65598;SHT31;52267;51.984;20.956;2023-02-15T02:43:58;3.97;85.74
65598;SHT31;52267;51.984;20.956;2023-02-15T02:46:59;3.94;85.96
65598;SHT31;52267;51.984;20.956;2023-02-15T02:49:43;3.94;86.04
65598;SHT31;52267;51.984;20.956;2023-02-15T02:55:17;3.94;86.13
65598;SHT31;52267;51.984;20.956;2023-02-15T03:00:53;3.91;86.19
65598;SHT31;52267;51.984;20.956;2023-02-15T03:03:34;3.93;86.14
65598;SHT31;52267;51.984;20.956;2023-02-15T03:06:14;3.92;86.10
65598;SHT31;52267;51.984;20.956;2023-02-15T03:08:51;3.92;86.18
65598;SHT31;52267;51.984;20.956;2023-02-15T03:11:27;3.91;86.26
65598;SHT31;52267;51.984;20.956;2023-02-15T03:13:54;3.93;86.19
65598;SHT31;52267;51.984;20.956;2023-02-15T03:16:21;3.91;86.13
65598;SHT31;52267;51.984;20.956;2023-02-15T03:19:02;3.89;86.19
65598;SHT31;52267;51.984;20.956;2023-02-15T03:21:49;3.86;86.40
65598;SHT31;52267;51.984;20.956;2023-02-15T03:24:28;3.87;86.32
65598;SHT31;52267;51.984;20.956;2023-02-15T03:27:22;3.86;86.41
65598;SHT31;52267;51.984;20.956;2023-02-15T03:30:01;3.85;86.43
65598;SHT31;52267;51.984;20.956;2023-02-15T03:32:30;3.85;86.43
65598;SHT31;52267;51.984;20.956;2023-02-15T03:35:01;3.84;86.38
65598;SHT31;52267;51.984;20.956;2023-02-15T03:37:39;3.83;86.50
65598;SHT31;52267;51.984;20.956;2023-02-15T03:40:26;3.85;86.62
65598;SHT31;52267;51.984;20.956;2023-02-15T03:49:14;3.86;86.77
65598;SHT31;52267;51.984;20.956;2023-02-15T03:51:46;3.87;86.79
65598;SHT31;52267;51.984;20.956;2023-02-15T03:54:18;3.87;86.73
65598;SHT31;52267;51.984;20.956;2023-02-15T03:57:22;3.86;86.67
65598;SHT31;52267;51.984;20.956;2023-02-15T04:03:09;3.76;86.54
65598;SHT31;52267;51.984;20.956;2023-02-15T04:06:09;3.66;86.69
65598;SHT31;52267;51.984;20.956;2023-02-15T04:08:36;3.60;86.70
65598;SHT31;52267;51.984;20.956;2023-02-15T04:11:21;3.53;86.80
65598;SHT31;52267;51.984;20.956;2023-02-15T04:13:48;3.46;86.94
65598;SHT31;52267;51.984;20.956;2023-02-15T04:16:25;3.41;87.05
65598;SHT31;52267;51.984;20.956;2023-02-15T04:18:52;3.38;87.00
65598;SHT31;52267;51.984;20.956;2023-02-15T04:21:37;3.35;87.00
65598;SHT31;52267;51.984;20.956;2023-02-15T04:24:22;3.35;87.11
65598;SHT31;52267;51.984;20.956;2023-02-15T04:27:08;3.33;87.24
65598;SHT31;52267;51.984;20.956;2023-02-15T04:29:38;3.31;87.31
65598;SHT31;52267;51.984;20.956;2023-02-15T04:32:05;3.29;87.43
65598;SHT31;52267;51.984;20.956;2023-02-15T04:34:32;3.23;87.42
65598;SHT31;52267;51.984;20.956;2023-02-15T04:36:59;3.19;87.72
65598;SHT31;52267;51.984;20.956;2023-02-15T04:39:26;3.18;87.81
65598;SHT31;52267;51.984;20.956;2023-02-15T04:41:53;3.17;88.02
65598;SHT31;52267;51.984;20.956;2023-02-15T04:44:20;3.16;88.04
65598;SHT31;52267;51.984;20.956;2023-02-15T04:46:47;3.16;87.82
65598;SHT31;52267;51.984;20.956;2023-02-15T04:49:14;3.15;87.64
65598;SHT31;52267;51.984;20.956;2023-02-15T04:51:41;3.15;87.81
65598;SHT31;52267;51.984;20.956;2023-02-15T04:54:08;3.15;87.73
65598;SHT31;52267;51.984;20.956;2023-02-15T04:56:36;3.15;87.81
65598;SHT31;52267;51.984;20.956;2023-02-15T04:59:04;3.16;87.90
65598;SHT31;52267;51.984;20.956;2023-02-15T05:01:32;3.12;88.08
65598;SHT31;52267;51.984;20.956;2023-02-15T05:03:59;3.11;88.19
65598;SHT31;52267;51.984;20.956;2023-02-15T05:06:26;3.10;88.20
65598;SHT31;52267;51.984;20.956;2023-02-15T05:08:53;3.08;88.08
65598;SHT31;52267;51.984;20.956;2023-02-15T05:11:20;3.06;88.14
65598;SHT31;52267;51.984;20.956;2023-02-15T05:13:47;3.08;87.97
65598;SHT31;52267;51.984;20.956;2023-02-15T05:16:15;3.07;88.07
65598;SHT31;52267;51.984;20.956;2023-02-15T05:18:42;3.07;88.13
65598;SHT31;52267;51.984;20.956;2023-02-15T05:21:09;3.06;88.10
65598;SHT31;52267;51.984;20.956;2023-02-15T05:23:36;3.05;88.11
65598;SHT31;52267;51.984;20.956;2023-02-15T05:26:03;3.05;88.05
65598;SHT31;52267;51.984;20.956;2023-02-15T05:28:49;3.04;88.11
65598;SHT31;52267;51.984;20.956;2023-02-15T05:31:17;3.03;88.16
65598;SHT31;52267;51.984;20.956;2023-02-15T05:33:45;3.05;88.12
65598;SHT31;52267;51.984;20.956;2023-02-15T05:36:13;3.06;88.18
65598;SHT31;52267;51.984;20.956;2023-02-15T05:38:40;3.06;88.26
65598;SHT31;52267;51.984;20.956;2023-02-15T05:41:08;3.06;88.18
65598;SHT31;52267;51.984;20.956;2023-02-15T05:43:37;3.06;88.11
65598;SHT31;52267;51.984;20.956;2023-02-15T05:46:05;3.07;88.00
65598;SHT31;52267;51.984;20.956;2023-02-15T05:48:33;3.05;88.02
65598;SHT31;52267;51.984;20.956;2023-02-15T05:51:02;3.05;88.03
65598;SHT31;52267;51.984;20.956;2023-02-15T05:53:33;3.04;88.15
65598;SHT31;52267;51.984;20.956;2023-02-15T05:56:04;3.03;88.25
65598;SHT31;52267;51.984;20.956;2023-02-15T05:58:35;3.01;88.21
65598;SHT31;52267;51.984;20.956;2023-02-15T06:01:14;2.97;88.24
65598;SHT31;52267;51.984;20.956;2023-02-15T06:03:45;2.96;88.09
65598;SHT31;52267;51.984;20.956;2023-02-15T06:06:12;2.97;88.02
65598;SHT31;52267;51.984;20.956;2023-02-15T06:08:40;2.97;88.06
65598;SHT31;52267;51.984;20.956;2023-02-15T06:11:07;2.98;88.05
65598;SHT31;52267;51.984;20.956;2023-02-15T06:13:34;3.00;88.07
65598;SHT31;52267;51.984;20.956;2023-02-15T06:16:02;2.98;87.87
65598;SHT31;52267;51.984;20.956;2023-02-15T06:18:29;2.96;87.85
65598;SHT31;52267;51.984;20.956;2023-02-15T06:20:56;2.95;87.98
65598;SHT31;52267;51.984;20.956;2023-02-15T06:23:23;2.93;87.95
65598;SHT31;52267;51.984;20.956;2023-02-15T06:25:50;2.90;87.96
65598;SHT31;52267;51.984;20.956;2023-02-15T06:28:18;2.89;88.00
65598;SHT31;52267;51.984;20.956;2023-02-15T06:30:45;2.88;87.92
65598;SHT31;52267;51.984;20.956;2023-02-15T06:33:13;2.89;87.90
65598;SHT31;52267;51.984;20.956;2023-02-15T06:35:39;2.89;87.97
65598;SHT31;52267;51.984;20.956;2023-02-15T06:38:07;2.89;88.08
65598;SHT31;52267;51.984;20.956;2023-02-15T06:40:34;2.90;88.09
65598;SHT31;52267;51.984;20.956;2023-02-15T06:43:01;2.88;88.13
65598;SHT31;52267;51.984;20.956;2023-02-15T06:45:28;2.87;87.96
65598;SHT31;52267;51.984;20.956;2023-02-15T06:47:55;2.88;88.06
65598;SHT31;52267;51.984;20.956;2023-02-15T06:50:22;2.89;87.96
65598;SHT31;52267;51.984;20.956;2023-02-15T06:52:49;2.86;88.22
65598;SHT31;52267;51.984;20.956;2023-02-15T06:55:16;2.85;88.33
65598;SHT31;52267;51.984;20.956;2023-02-15T06:57:43;2.86;88.36
65598;SHT31;52267;51.984;20.956;2023-02-15T07:00:10;2.83;88.61
65598;SHT31;52267;51.984;20.956;2023-02-15T07:02:38;2.83;88.61
65598;SHT31;52267;51.984;20.956;2023-02-15T07:05:05;2.83;88.68
65598;SHT31;52267;51.984;20.956;2023-02-15T07:07:33;2.77;88.83
65598;SHT31;52267;51.984;20.956;2023-02-15T07:10:00;2.78;88.68
65598;SHT31;52267;51.984;20.956;2023-02-15T07:12:27;2.78;88.52
65598;SHT31;52267;51.984;20.956;2023-02-15T07:15:14;2.76;88.43
65598;SHT31;52267;51.984;20.956;2023-02-15T07:17:43;2.75;88.56
65598;SHT31;52267;51.984;20.956;2023-02-15T07:20:12;2.75;88.41
65598;SHT31;52267;51.984;20.956;2023-02-15T07:22:50;2.74;88.28
65598;SHT31;52267;51.984;20.956;2023-02-15T07:25:17;2.72;88.22
65598;SHT31;52267;51.984;20.956;2023-02-15T07:27:45;2.68;88.21
65598;SHT31;52267;51.984;20.956;2023-02-15T07:30:13;2.67;88.27
65598;SHT31;52267;51.984;20.956;2023-02-15T07:32:43;2.65;88.25
65598;SHT31;52267;51.984;20.956;2023-02-15T07:35:28;2.65;88.44
65598;SHT31;52267;51.984;20.956;2023-02-15T07:37:56;2.72;88.51
65598;SHT31;52267;51.984;20.956;2023-02-15T07:40:23;2.77;88.53
65598;SHT31;52267;51.984;20.956;2023-02-15T07:42:50;2.80;88.56
65598;SHT31;52267;51.984;20.956;2023-02-15T07:45:19;2.83;88.56
65598;SHT31;52267;51.984;20.956;2023-02-15T07:47:48;2.85;88.53
65598;SHT31;52267;51.984;20.956;2023-02-15T07:50:15;2.78;89.06
65598;SHT31;52267;51.984;20.956;2023-02-15T07:52:42;2.79;88.81
65598;SHT31;52267;51.984;20.956;2023-02-15T07:55:09;2.81;88.66
65598;SHT31;52267;51.984;20.956;2023-02-15T07:57:45;2.81;88.76
65598;SHT31;52267;51.984;20.956;2023-02-15T08:00:15;2.81;88.69
65598;SHT31;52267;51.984;20.956;2023-02-15T08:02:47;2.81;88.89
65598;SHT31;52267;51.984;20.956;2023-02-15T08:05:35;2.82;88.66
65598;SHT31;52267;51.984;20.956;2023-02-15T08:08:02;2.81;88.78
65598;SHT31;52267;51.984;20.956;2023-02-15T08:10:30;2.81;88.78
65598;SHT31;52267;51.984;20.956;2023-02-15T08:13:16;2.82;88.95
65598;SHT31;52267;51.984;20.956;2023-02-15T08:15:49;2.82;88.80
65598;SHT31;52267;51.984;20.956;2023-02-15T08:18:17;2.85;88.73
65598;SHT31;52267;51.984;20.956;2023-02-15T08:20:50;2.87;88.82
65598;SHT31;52267;51.984;20.956;2023-02-15T08:23:18;2.88;88.58
65598;SHT31;52267;51.984;20.956;2023-02-15T08:25:45;2.90;88.56
65598;SHT31;52267;51.984;20.956;2023-02-15T08:28:12;2.91;88.82
65598;SHT31;52267;51.984;20.956;2023-02-15T08:30:39;2.92;88.84
65598;SHT31;52267;51.984;20.956;2023-02-15T08:33:07;2.91;89.09
65598;SHT31;52267;51.984;20.956;2023-02-15T08:35:36;2.95;89.06
65598;SHT31;52267;51.984;20.956;2023-02-15T08:38:03;2.96;89.14
65598;SHT31;52267;51.984;20.956;2023-02-15T08:40:30;2.96;89.60
65598;SHT31;52267;51.984;20.956;2023-02-15T08:42:57;2.96;89.33
65598;SHT31;52267;51.984;20.956;2023-02-15T08:45:24;3.00;89.30
65598;SHT31;52267;51.984;20.956;2023-02-15T08:47:52;3.04;89.29
65598;SHT31;52267;51.984;20.956;2023-02-15T08:50:19;3.09;89.25
65598;SHT31;52267;51.984;20.956;2023-02-15T08:52:46;3.05;89.74
65598;SHT31;52267;51.984;20.956;2023-02-15T08:55:13;3.06;89.67
65598;SHT31;52267;51.984;20.956;2023-02-15T08:57:40;3.10;89.43
65598;SHT31;52267;51.984;20.956;2023-02-15T09:00:11;3.12;89.26
65598;SHT31;52267;51.984;20.956;2023-02-15T09:02:39;3.13;89.33
65598;SHT31;52267;51.984;20.956;2023-02-15T09:05:06;3.16;89.33
65598;SHT31;52267;51.984;20.956;2023-02-15T09:07:33;3.16;89.22
65598;SHT31;52267;51.984;20.956;2023-02-15T09:10:00;3.17;89.19
65598;SHT31;52267;51.984;20.956;2023-02-15T09:12:27;3.17;89.00
65598;SHT31;52267;51.984;20.956;2023-02-15T09:14:54;3.20;89.09
65598;SHT31;52267;51.984;20.956;2023-02-15T09:17:21;3.25;89.03
65598;SHT31;52267;51.984;20.956;2023-02-15T09:19:48;3.27;89.02
65598;SHT31;52267;51.984;20.956;2023-02-15T09:22:15;3.24;89.00
65598;SHT31;52267;51.984;20.956;2023-02-15T09:24:42;3.15;89.41
65598;SHT31;52267;51.984;20.956;2023-02-15T09:27:10;3.17;89.41
65598;SHT31;52267;51.984;20.956;2023-02-15T09:29:37;3.21;89.36
65598;SHT31;52267;51.984;20.956;2023-02-15T09:32:04;3.22;89.26
65598;SHT31;52267;51.984;20.956;2023-02-15T09:34:31;3.21;89.24
65598;SHT31;52267;51.984;20.956;2023-02-15T09:36:58;3.21;89.39
65598;SHT31;52267;51.984;20.956;2023-02-15T09:39:26;3.25;89.22
65598;SHT31;52267;51.984;20.956;2023-02-15T09:55:59;3.28;89.13
65598;SHT31;52267;51.984;20.956;2023-02-15T10:01:55;3.29;89.09
65598;SHT31;52267;51.984;20.956;2023-02-15T10:17:52;3.30;89.24
65598;SHT31;52267;51.984;20.956;2023-02-15T10:23:33;3.35;88.91
65598;SHT31;52267;51.984;20.956;2023-02-15T10:29:10;3.32;88.77
65598;SHT31;52267;51.984;20.956;2023-02-15T10:31:48;3.33;88.65
65598;SHT31;52267;51.984;20.956;2023-02-15T10:37:34;3.35;88.64
65598;SHT31;52267;51.984;20.956;2023-02-15T10:40:40;3.36;88.84
65598;SHT31;52267;51.984;20.956;2023-02-15T10:46:38;3.41;88.66
65598;SHT31;52267;51.984;20.956;2023-02-15T11:07:04;3.37;89.03
65598;SHT31;52267;51.984;20.956;2023-02-15T11:09:55;3.39;88.96
65598;SHT31;52267;51.984;20.956;2023-02-15T11:12:32;3.41;88.76
65598;SHT31;52267;51.984;20.956;2023-02-15T11:18:19;3.47;88.75
65598;SHT31;52267;51.984;20.956;2023-02-15T11:23:41;3.44;88.91
65598;SHT31;52267;51.984;20.956;2023-02-15T11:26:13;3.44;88.82
65598;SHT31;52267;51.984;20.956;2023-02-15T11:28:55;3.43;88.91
65598;SHT31;52267;51.984;20.956;2023-02-15T11:31:27;3.42;88.85
65598;SHT31;52267;51.984;20.956;2023-02-15T11:37:05;3.45;88.79
65598;SHT31;52267;51.984;20.956;2023-02-15T11:39:37;3.47;88.74
65598;SHT31;52267;51.984;20.956;2023-02-15T11:42:06;3.44;88.76
65598;SHT31;52267;51.984;20.956;2023-02-15T11:47:46;3.38;88.80
65598;SHT31;52267;51.984;20.956;2023-02-15T11:50:15;3.41;88.72
65598;SHT31;52267;51.984;20.956;2023-02-15T11:52:49;3.41;88.75
65598;SHT31;52267;51.984;20.956;2023-02-15T11:55:22;3.41;88.82
65598;SHT31;52267;51.984;20.956;2023-02-15T11:57:53;3.38;88.87
65598;SHT31;52267;51.984;20.956;2023-02-15T12:00:30;3.37;88.90
65598;SHT31;52267;51.984;20.956;2023-02-15T12:03:07;3.33;88.98
65598;SHT31;52267;51.984;20.956;2023-02-15T12:05:44;3.32;88.90
65598;SHT31;52267;51.984;20.956;2023-02-15T12:10:53;3.29;89.03
65598;SHT31;52267;51.984;20.956;2023-02-15T12:13:29;3.28;89.00
65598;SHT31;52267;51.984;20.956;2023-02-15T12:15:57;3.34;88.93
65598;SHT31;52267;51.984;20.956;2023-02-15T12:18:42;3.37;88.81
65598;SHT31;52267;51.984;20.956;2023-02-15T12:21:12;3.42;88.79
65598;SHT31;52267;51.984;20.956;2023-02-15T12:24:03;3.44;88.84
65598;SHT31;52267;51.984;20.956;2023-02-15T12:26:43;3.38;88.98
65598;SHT31;52267;51.984;20.956;2023-02-15T12:29:15;3.40;88.91
65598;SHT31;52267;51.984;20.956;2023-02-15T12:31:44;3.46;88.87
65598;SHT31;52267;51.984;20.956;2023-02-15T12:36:51;3.52;88.60
65598;SHT31;52267;51.984;20.956;2023-02-15T12:39:26;3.52;88.54
65598;SHT31;52267;51.984;20.956;2023-02-15T12:44:32;3.54;88.40
65598;SHT31;52267;51.984;20.956;2023-02-15T12:47:03;3.51;88.41
65598;SHT31;52267;51.984;20.956;2023-02-15T12:49:33;3.51;88.41
65598;SHT31;52267;51.984;20.956;2023-02-15T12:52:05;3.53;88.41
65598;SHT31;52267;51.984;20.956;2023-02-15T12:54:50;3.53;88.46
65598;SHT31;52267;51.984;20.956;2023-02-15T12:59:58;3.55;88.31
65598;SHT31;52267;51.984;20.956;2023-02-15T13:02:35;3.57;88.35
65598;SHT31;52267;51.984;20.956;2023-02-15T13:07:49;3.59;88.32
65598;SHT31;52267;51.984;20.956;2023-02-15T13:10:31;3.56;88.39
65598;SHT31;52267;51.984;20.956;2023-02-15T13:13:09;3.54;88.40
65598;SHT31;52267;51.984;20.956;2023-02-15T13:15:41;3.52;88.36
65598;SHT31;52267;51.984;20.956;2023-02-15T13:18:19;3.47;88.51
65598;SHT31;52267;51.984;20.956;2023-02-15T13:23:59;3.41;88.55
65598;SHT31;52267;51.984;20.956;2023-02-15T13:26:32;3.41;88.54
65598;SHT31;52267;51.984;20.956;2023-02-15T13:32:10;3.43;88.36
65598;SHT31;52267;51.984;20.956;2023-02-15T13:34:50;3.43;88.20
65598;SHT31;52267;51.984;20.956;2023-02-15T13:51:59;3.27;88.17
65598;SHT31;52267;51.984;20.956;2023-02-15T14:09:24;3.11;88.83
65598;SHT31;52267;51.984;20.956;2023-02-15T14:21:19;3.10;88.75
65598;SHT31;52267;51.984;20.956;2023-02-15T14:24:17;3.16;88.69
65598;SHT31;52267;51.984;20.956;2023-02-15T14:30:23;3.22;88.51
65598;SHT31;52267;51.984;20.956;2023-02-15T14:33:05;3.24;88.50
65598;SHT31;52267;51.984;20.956;2023-02-15T14:35:41;3.29;88.38
65598;SHT31;52267;51.984;20.956;2023-02-15T14:41:45;3.26;88.29
65598;SHT31;52267;51.984;20.956;2023-02-15T14:44:22;3.17;88.29
65598;SHT31;52267;51.984;20.956;2023-02-15T14:47:18;3.14;88.36
65598;SHT31;52267;51.984;20.956;2023-02-15T14:49:53;3.21;88.24
65598;SHT31;52267;51.984;20.956;2023-02-15T14:52:20;3.22;88.18
65598;SHT31;52267;51.984;20.956;2023-02-15T14:59:46;3.13;88.11
65598;SHT31;52267;51.984;20.956;2023-02-15T15:05:24;2.98;87.97
65598;SHT31;52267;51.984;20.956;2023-02-15T15:08:03;2.89;88.10
65598;SHT31;52267;51.984;20.956;2023-02-15T15:10:42;2.86;88.12
65598;SHT31;52267;51.984;20.956;2023-02-15T15:13:55;2.82;88.17
65598;SHT31;52267;51.984;20.956;2023-02-15T15:18:58;2.83;88.26
65598;SHT31;52267;51.984;20.956;2023-02-15T15:49:41;2.74;88.21
65598;SHT31;52267;51.984;20.956;2023-02-15T15:52:16;2.75;88.11
65598;SHT31;52267;51.984;20.956;2023-02-15T15:54:48;2.73;88.19
65598;SHT31;52267;51.984;20.956;2023-02-15T15:57:29;2.72;88.24
65598;SHT31;52267;51.984;20.956;2023-02-15T16:00:00;2.74;88.12
65598;SHT31;52267;51.984;20.956;2023-02-15T16:02:30;2.75;88.20
65598;SHT31;52267;51.984;20.956;2023-02-15T16:05:07;2.73;88.27
65598;SHT31;52267;51.984;20.956;2023-02-15T16:07:35;2.73;88.32
65598;SHT31;52267;51.984;20.956;2023-02-15T16:10:16;2.72;88.38
65598;SHT31;52267;51.984;20.956;2023-02-15T16:12:52;2.75;88.32
65598;SHT31;52267;51.984;20.956;2023-02-15T16:15:22;2.76;88.28
65598;SHT31;52267;51.984;20.956;2023-02-15T16:17:53;2.76;88.21
65598;SHT31;52267;51.984;20.956;2023-02-15T16:20:26;2.73;88.28
65598;SHT31;52267;51.984;20.956;2023-02-15T16:26:09;2.72;88.41
65598;SHT31;52267;51.984;20.956;2023-02-15T16:29:15;2.70;88.54
65598;SHT31;52267;51.984;20.956;2023-02-15T16:32:00;2.69;88.48
65598;SHT31;52267;51.984;20.956;2023-02-15T16:34:32;2.67;88.44
65598;SHT31;52267;51.984;20.956;2023-02-15T16:37:15;2.68;88.32
65598;SHT31;52267;51.984;20.956;2023-02-15T16:39:45;2.66;88.31
65598;SHT31;52267;51.984;20.956;2023-02-15T16:42:14;2.65;88.30
65598;SHT31;52267;51.984;20.956;2023-02-15T16:44:48;2.64;88.33
65598;SHT31;52267;51.984;20.956;2023-02-15T16:47:36;2.61;88.50
65598;SHT31;52267;51.984;20.956;2023-02-15T16:50:16;2.60;88.56
65598;SHT31;52267;51.984;20.956;2023-02-15T16:52:49;2.61;88.38
65598;SHT31;52267;51.984;20.956;2023-02-15T16:55:38;2.65;88.30
65598;SHT31;52267;51.984;20.956;2023-02-15T16:58:13;2.65;88.35
65598;SHT31;52267;51.984;20.956;2023-02-15T17:00:44;2.66;88.40
65598;SHT31;52267;51.984;20.956;2023-02-15T17:08:33;2.68;88.46
65598;SHT31;52267;51.984;20.956;2023-02-15T17:11:20;2.66;88.56
65598;SHT31;52267;51.984;20.956;2023-02-15T17:14:12;2.65;88.60
65598;SHT31;52267;51.984;20.956;2023-02-15T17:16:48;2.64;88.70
65598;SHT31;52267;51.984;20.956;2023-02-15T17:22:25;2.64;88.74
65598;SHT31;52267;51.984;20.956;2023-02-15T17:25:00;2.67;88.69
65598;SHT31;52267;51.984;20.956;2023-02-15T17:27:31;2.69;88.65
65598;SHT31;52267;51.984;20.956;2023-02-15T17:30:12;2.68;88.53
65598;SHT31;52267;51.984;20.956;2023-02-15T17:33:17;2.67;88.44
65598;SHT31;52267;51.984;20.956;2023-02-15T17:36:10;2.65;88.46
65598;SHT31;52267;51.984;20.956;2023-02-15T17:39:17;2.65;88.43
65598;SHT31;52267;51.984;20.956;2023-02-15T17:41:46;2.63;88.52
65598;SHT31;52267;51.984;20.956;2023-02-15T17:44:14;2.64;88.53
65598;SHT31;52267;51.984;20.956;2023-02-15T17:46:46;2.64;88.56
65598;SHT31;52267;51.984;20.956;2023-02-15T17:49:22;2.62;88.67
65598;SHT31;52267;51.984;20.956;2023-02-15T17:51:56;2.64;88.57
65598;SHT31;52267;51.984;20.956;2023-02-15T17:54:25;2.64;88.60
65598;SHT31;52267;51.984;20.956;2023-02-15T17:57:14;2.63;88.65
65598;SHT31;52267;51.984;20.956;2023-02-15T17:59:43;2.62;88.68
65598;SHT31;52267;51.984;20.956;2023-02-15T18:02:32;2.63;88.69
65598;SHT31;52267;51.984;20.956;2023-02-15T18:05:21;2.62;88.73
65598;SHT31;52267;51.984;20.956;2023-02-15T18:08:12;2.65;88.68
65598;SHT31;52267;51.984;20.956;2023-02-15T18:11:01;2.64;88.55
65598;SHT31;52267;51.984;20.956;2023-02-15T18:13:50;2.67;88.43
65598;SHT31;52267;51.984;20.956;2023-02-15T18:16:22;2.66;88.42
65598;SHT31;52267;51.984;20.956;2023-02-15T18:18:57;2.65;88.43
65598;SHT31;52267;51.984;20.956;2023-02-15T18:21:25;2.65;88.42
65598;SHT31;52267;51.984;20.956;2023-02-15T18:23:53;2.67;88.40
65598;SHT31;52267;51.984;20.956;2023-02-15T18:26:22;2.63;88.45
65598;SHT31;52267;51.984;20.956;2023-02-15T18:28:52;2.62;88.41
65598;SHT31;52267;51.984;20.956;2023-02-15T18:31:25;2.58;88.40
65598;SHT31;52267;51.984;20.956;2023-02-15T18:33:56;2.55;88.40
65598;SHT31;52267;51.984;20.956;2023-02-15T18:36:30;2.50;88.37
65598;SHT31;52267;51.984;20.956;2023-02-15T18:42:25;2.40;88.24
65598;SHT31;52267;51.984;20.956;2023-02-15T18:45:18;2.36;88.22
65598;SHT31;52267;51.984;20.956;2023-02-15T18:47:52;2.30;88.20
65598;SHT31;52267;51.984;20.956;2023-02-15T18:50:21;2.21;88.22
65598;SHT31;52267;51.984;20.956;2023-02-15T18:52:56;2.17;88.30
65598;SHT31;52267;51.984;20.956;2023-02-15T18:55:25;2.15;88.25
65598;SHT31;52267;51.984;20.956;2023-02-15T18:57:55;2.11;88.14
65598;SHT31;52267;51.984;20.956;2023-02-15T19:00:25;2.05;88.03
65598;SHT31;52267;51.984;20.956;2023-02-15T19:02:59;2.03;88.02
65598;SHT31;52267;51.984;20.956;2023-02-15T19:05:29;1.99;87.88
65598;SHT31;52267;51.984;20.956;2023-02-15T19:08:03;1.88;87.88
65598;SHT31;52267;51.984;20.956;2023-02-15T19:10:43;1.84;87.86
65598;SHT31;52267;51.984;20.956;2023-02-15T19:13:16;1.78;87.77
65598;SHT31;52267;51.984;20.956;2023-02-15T19:15:44;1.74;87.68
65598;SHT31;52267;51.984;20.956;2023-02-15T19:18:13;1.70;87.56
65598;SHT31;52267;51.984;20.956;2023-02-15T19:20:43;1.63;87.50
65598;SHT31;52267;51.984;20.956;2023-02-15T19:23:14;1.58;87.43
65598;SHT31;52267;51.984;20.956;2023-02-15T19:25:47;1.45;87.37
65598;SHT31;52267;51.984;20.956;2023-02-15T19:28:18;1.33;87.48
65598;SHT31;52267;51.984;20.956;2023-02-15T19:30:56;1.24;87.50
65598;SHT31;52267;51.984;20.956;2023-02-15T19:33:26;1.21;87.49
65598;SHT31;52267;51.984;20.956;2023-02-15T19:35:57;1.17;87.44
65598;SHT31;52267;51.984;20.956;2023-02-15T19:38:28;1.12;87.34
65598;SHT31;52267;51.984;20.956;2023-02-15T19:41:07;1.02;87.37
65598;SHT31;52267;51.984;20.956;2023-02-15T19:43:46;0.96;87.35
65598;SHT31;52267;51.984;20.956;2023-02-15T19:46:22;0.90;87.31
65598;SHT31;52267;51.984;20.956;2023-02-15T19:48:51;0.82;87.36
65598;SHT31;52267;51.984;20.956;2023-02-15T19:51:21;0.75;87.44
65598;SHT31;52267;51.984;20.956;2023-02-15T19:53:51;0.69;87.42